• Join FlightAware (Why Join?)
  • Login
  • US Flag 
07:16AM EDT


 

Airport Tracker/Info


-or-


 

Live Flight TrackerFlight Track Log ✈ UAL6129 ✈ 13-Jan-2014 ✈ KORD - KCWA

Flight Track Log - Related Links

Times and Time Zones

All times are in EST time to prevent confusion due to time zone crossing. See the UAL6129 flight status page for this flight to view local times or setup timezone preferences in your user account.

Time Position Orientation Groundspeed Altitude Reporting Facility
EST Latitude Longitude Course Direction KTS MPH feet Rate Location/Type
08:36PM 42.0167 -87.9500 347° North 174 200 3,100  Level Chicago TRACON
08:37PM 42.0500 -88.0000 312° West 210 242 5,100 840 Climbing Chicago TRACON
08:38PM 42.1289 -88.0442 337° Northwest 236 272 5,000 600 Descending Chicago Center
08:40PM 42.1944 -88.0503 356° North 239 275 6,500 1,980 Climbing Chicago Center
08:41PM 42.2711 -88.0439 North 271 312 9,100 2,160 Climbing Chicago Center
08:42PM 42.4674 -88.2016 347° North  Level Estimated
08:42PM 42.3447 -88.0367 North 281 323 11,000  Level Chicago Center
08:43PM 42.4553 -88.0303 North 329 379 12,500 1,620 Climbing Chicago Center
08:44PM 42.5439 -88.0561 348° North 334 384 14,400 1,560 Climbing Chicago Center
08:45PM 42.6264 -88.1125 333° Northwest 333 383 15,800 1,320 Climbing Chicago Center
08:46PM 42.7103 -88.1742 332° Northwest 339 390 17,200 1,320 Climbing Chicago Center
08:47PM 42.7978 -88.2311 334° Northwest 348 400 18,600 1,260 Climbing Chicago Center
08:48PM 42.8861 -88.2931 333° Northwest 356 410 19,900 660 Climbing Chicago Center
08:49PM 42.9792 -88.3583 333° Northwest 372 428 20,000  Climbing Chicago Center
08:50PM 43.0969 -88.4422 333° Northwest 393 452 20,000  Level Chicago Center
08:51PM 43.1969 -88.5083 334° Northwest 398 458 20,000  Level Chicago Center
08:52PM 43.2897 -88.5775 332° Northwest 381 438 20,000  Level Chicago Center
08:53PM 43.3847 -88.6458 332° Northwest 378 435 20,000  Level Chicago Center
08:54PM 43.4803 -88.7131 333° Northwest 377 434 20,000  Level Chicago Center
08:55PM 43.5753 -88.7819 332° Northwest 381 438 20,000  Level Chicago Center
08:56PM 43.6697 -88.8503 332° Northwest 382 440 20,000  Level Chicago Center
08:57PM 43.7642 -88.9192 332° Northwest 383 441 20,000 -480 Level Chicago Center
08:58PM 43.8581 -88.9861 333° Northwest 382 440 19,100 -1,320 Descending Chicago Center
08:59PM 43.9514 -89.0542 332° Northwest 380 437 17,300 -2,040 Descending Chicago Center
09:00PM 44.0586 -89.1325 332° Northwest 369 425 15,000 -1,620 Descending Chicago Center
09:01PM 44.1425 -89.1953 332° Northwest 354 407 14,000 -540 Descending Chicago Center
09:02PM 44.2217 -89.2522 333° Northwest 330 380 14,000 -600 Level Chicago Center
09:03PM 44.3056 -89.3167 331° Northwest 339 390 12,800 -1,500 Descending Chicago Center
09:04PM 44.3811 -89.3669 335° Northwest 316 364 10,900 -1,800 Descending Chicago Center
09:05PM 44.4472 -89.4186 331° Northwest 289 333 9,100 -1,620 Descending Chicago Center
09:06PM 44.5056 -89.4553 336° Northwest 255 293 7,600 -2,160 Descending Chicago Center
09:07PM 44.5789 -89.4622 356° North 230 265 4,700 -2,040 Descending Chicago Center
09:09PM 44.6361 -89.4803 347° North 210 242 3,000 -780 Descending Minneapolis Center
09:10PM 44.6975 -89.4972 349° North 202 232 3,000  Level Minneapolis Center
09:11PM 44.7586 -89.5147 349° North 200 230 3,000 -180 Level Minneapolis Center
09:12PM 44.7894 -89.5511 320° Northwest 161 185 2,700 -300 Descending Minneapolis Center